createdAt,value
2022-11-22T00:02:21.901Z,97318.91
2022-11-22T00:05:10.043Z,97324.00
2022-11-22T00:07:58.717Z,97313.81
2022-11-22T00:10:46.062Z,97306.00
2022-11-22T00:13:33.237Z,97312.88
2022-11-22T00:16:20.335Z,97300.13
2022-11-22T00:19:07.598Z,97292.31
2022-11-22T00:21:54.715Z,97293.13
2022-11-22T00:24:44.183Z,97281.34
2022-11-22T00:27:31.543Z,97284.53
2022-11-22T00:30:18.908Z,97283.72
2022-11-22T00:33:06.247Z,97286.13
2022-11-22T00:35:53.360Z,97275.94
2022-11-22T00:38:40.576Z,97281.81
2022-11-22T00:41:29.092Z,97273.22
2022-11-22T00:44:16.491Z,97272.44
2022-11-22T00:47:03.794Z,97284.22
2022-11-22T00:49:50.912Z,97284.09
2022-11-22T00:52:37.918Z,97289.22
2022-11-22T00:55:25.036Z,97280.59
2022-11-22T00:58:13.711Z,97282.34
2022-11-22T01:01:01.247Z,97277.25
2022-11-22T01:03:48.239Z,97288.22
2022-11-22T01:06:35.364Z,97293.34
2022-11-22T01:09:24.651Z,97300.19
2022-11-22T01:12:11.933Z,97305.94
2022-11-22T01:15:00.759Z,97320.47
2022-11-22T01:17:48.179Z,97325.56
2022-11-22T01:20:35.243Z,97328.91
2022-11-22T01:23:22.435Z,97334.81
2022-11-22T01:26:11.079Z,97329.72
2022-11-22T01:28:58.121Z,97333.06
2022-11-22T01:31:46.522Z,97333.06
2022-11-22T01:34:33.721Z,97333.88
2022-11-22T01:37:21.099Z,97330.50
2022-11-22T01:40:11.011Z,97336.44
2022-11-22T01:43:01.339Z,97344.88
2022-11-22T01:45:54.599Z,97336.28
2022-11-22T01:48:53.374Z,97334.66
2022-11-22T01:51:43.762Z,97340.56
2022-11-22T01:54:35.466Z,97335.47
2022-11-22T01:57:28.063Z,97340.56
2022-11-22T02:00:18.244Z,97338.84
2022-11-22T02:03:09.038Z,97344.72
2022-11-22T02:05:58.452Z,97345.50
2022-11-22T02:08:55.282Z,97344.56
2022-11-22T02:11:48.326Z,97354.78
2022-11-22T02:14:36.275Z,97358.16
2022-11-22T02:17:26.551Z,97354.78
2022-11-22T02:20:17.029Z,97355.59
2022-11-22T02:23:13.696Z,97359.88
2022-11-22T02:26:03.866Z,97366.59
2022-11-22T02:28:53.732Z,97369.16
2022-11-22T02:31:43.631Z,97360.72
2022-11-22T02:34:30.695Z,97367.38
2022-11-22T02:37:24.068Z,97370.59
2022-11-22T02:40:15.795Z,97366.28
2022-11-22T02:43:07.545Z,97365.50
2022-11-22T02:45:54.836Z,97381.59
2022-11-22T02:48:43.236Z,97390.88
2022-11-22T02:51:30.920Z,97390.88
2022-11-22T02:54:18.289Z,97397.59
2022-11-22T02:57:05.559Z,97388.31
2022-11-22T02:59:54.063Z,97379.72
2022-11-22T03:02:41.491Z,97386.44
2022-11-22T03:05:28.986Z,97391.53
2022-11-22T03:08:15.966Z,97384.69
2022-11-22T03:11:03.031Z,97377.03
2022-11-22T03:13:50.143Z,97386.28
2022-11-22T03:16:38.467Z,97389.63
2022-11-22T03:19:25.942Z,97390.56
2022-11-22T03:22:12.995Z,97397.28
2022-11-22T03:25:00.071Z,97396.50
2022-11-22T03:27:46.989Z,97404.00
2022-11-22T03:30:34.420Z,97404.00
2022-11-22T03:33:23.311Z,97404.00
2022-11-22T03:36:10.640Z,97403.06
2022-11-22T03:38:57.678Z,97401.31
2022-11-22T03:41:44.884Z,97400.50
2022-11-22T03:44:32.113Z,97400.50
2022-11-22T03:47:19.058Z,97403.84
2022-11-22T03:50:08.679Z,97408.16
2022-11-22T03:52:55.811Z,97410.72
2022-11-22T03:55:42.852Z,97409.75
2022-11-22T03:58:29.951Z,97419.97
2022-11-22T04:01:17.210Z,97408.97
2022-11-22T04:04:04.091Z,97417.41
2022-11-22T04:06:52.617Z,97420.78
2022-11-22T04:09:39.820Z,97431.78
2022-11-22T04:12:27.156Z,97425.06
2022-11-22T04:15:13.134Z,97427.47
2022-11-22T04:18:00.586Z,97428.44
2022-11-22T04:21:05.457Z,97449.63
2022-11-22T04:24:07.761Z,97446.28
2022-11-22T04:26:55.643Z,97451.53
2022-11-22T04:29:42.978Z,97448.03
2022-11-22T04:32:47.314Z,97445.47
2022-11-22T04:35:34.416Z,97446.44
2022-11-22T04:38:22.387Z,97447.09
2022-11-22T04:41:10.939Z,97458.22
2022-11-22T04:44:15.553Z,97460.78
2022-11-22T04:47:02.460Z,97457.44
2022-11-22T04:49:49.428Z,97451.53
2022-11-22T04:52:53.759Z,97440.38
2022-11-22T04:55:41.581Z,97457.44
2022-11-22T04:58:30.388Z,97449.00
2022-11-22T05:01:17.737Z,97449.00
2022-11-22T05:04:04.965Z,97455.81
2022-11-22T05:06:52.631Z,97456.66
2022-11-22T05:09:39.579Z,97461.75
2022-11-22T05:12:26.691Z,97460.00
2022-11-22T05:15:15.587Z,97462.53
2022-11-22T05:18:02.872Z,97465.88
2022-11-22T05:20:49.951Z,97465.88
2022-11-22T05:23:55.668Z,97472.75
2022-11-22T05:26:43.105Z,97464.28
2022-11-22T05:29:30.702Z,97460.00
2022-11-22T05:32:19.407Z,97468.56
2022-11-22T05:35:07.770Z,97472.88
2022-11-22T05:37:54.894Z,97472.22
2022-11-22T05:40:41.918Z,97479.88
2022-11-22T05:43:29.792Z,97492.63
2022-11-22T05:46:23.932Z,97480.84
2022-11-22T05:49:13.030Z,97486.88
2022-11-22T05:52:00.498Z,97491.16
2022-11-22T05:54:47.722Z,97491.31
2022-11-22T05:57:35.039Z,97493.06
2022-11-22T06:00:22.899Z,97508.38
2022-11-22T06:03:10.319Z,97511.06
2022-11-22T06:05:58.728Z,97512.00
2022-11-22T06:08:48.328Z,97517.88
2022-11-22T06:11:36.580Z,97519.66
2022-11-22T06:14:23.668Z,97521.41
2022-11-22T06:17:10.774Z,97518.97
2022-11-22T06:20:01.361Z,97532.56
2022-11-22T06:22:54.107Z,97531.72
2022-11-22T06:25:41.441Z,97536.03
2022-11-22T06:28:30.106Z,97536.03
2022-11-22T06:31:20.120Z,97539.53
2022-11-22T06:34:07.668Z,97545.44
2022-11-22T06:36:54.928Z,97550.56
2022-11-22T06:39:43.496Z,97551.34
2022-11-22T06:42:30.875Z,97560.75
2022-11-22T06:45:18.243Z,97558.22
2022-11-22T06:48:06.782Z,97562.34
2022-11-22T06:50:54.192Z,97574.16
2022-11-22T06:53:49.789Z,97573.38
2022-11-22T06:56:41.216Z,97576.84
2022-11-22T06:59:29.145Z,97562.47
2022-11-22T07:02:16.325Z,97570.97
2022-11-22T07:05:09.801Z,97579.41
2022-11-22T07:07:36.168Z,97581.16
2022-11-22T07:10:05.432Z,97592.94
2022-11-22T07:12:35.490Z,97589.59
2022-11-22T07:15:04.079Z,97588.81
2022-11-22T07:17:32.780Z,97594.72
2022-11-22T07:20:01.413Z,97589.47
2022-11-22T07:22:30.188Z,97592.94
2022-11-22T07:24:58.816Z,97594.56
2022-11-22T07:27:27.503Z,97597.94
2022-11-22T07:29:57.536Z,97602.06
2022-11-22T07:32:26.184Z,97598.72
2022-11-22T07:34:54.844Z,97603.84
2022-11-22T07:37:23.412Z,97607.19
2022-11-22T07:39:52.038Z,97624.91
2022-11-22T07:42:25.856Z,97619.78
2022-11-22T07:44:57.003Z,97624.91
2022-11-22T07:47:25.691Z,97624.91
2022-11-22T07:49:54.371Z,97635.09
2022-11-22T07:52:22.991Z,97654.84
2022-11-22T07:54:51.660Z,97664.13
2022-11-22T07:57:20.396Z,97657.25
2022-11-22T07:59:49.117Z,97646.13
2022-11-22T08:02:19.460Z,97656.47
2022-11-22T08:04:48.159Z,97663.16
2022-11-22T08:07:16.970Z,97671.66
2022-11-22T08:09:45.676Z,97670.81
2022-11-22T08:12:14.268Z,97675.91
2022-11-22T08:14:42.969Z,97686.94
2022-11-22T08:17:11.555Z,97692.84
2022-11-22T08:19:41.643Z,97695.41
2022-11-22T08:22:10.344Z,97698.78
2022-11-22T08:24:39.379Z,97689.50
2022-11-22T08:27:08.366Z,97692.84
2022-11-22T08:29:37.030Z,97698.78
2022-11-22T08:32:06.231Z,97694.47
2022-11-22T08:34:34.948Z,97686.81
2022-11-22T08:37:04.907Z,97688.44
2022-11-22T08:39:33.571Z,97689.22
2022-11-22T08:42:02.209Z,97687.50
2022-11-22T08:44:30.799Z,97692.59
2022-11-22T08:46:59.414Z,97694.19
2022-11-22T08:49:28.549Z,97689.91
2022-11-22T08:51:57.499Z,97685.59
2022-11-22T08:54:27.492Z,97686.38
2022-11-22T08:56:56.042Z,97699.81
2022-11-22T08:59:24.731Z,97690.41
2022-11-22T09:01:53.578Z,97682.75
2022-11-22T09:04:23.127Z,97688.69
2022-11-22T09:09:41.714Z,97677.50
2022-11-22T09:12:10.385Z,97690.28
2022-11-22T09:14:38.934Z,97692.72
2022-11-22T09:17:08.198Z,97690.16
2022-11-22T09:19:37.232Z,97686.66
2022-11-22T09:22:05.848Z,97681.41
2022-11-22T09:24:34.573Z,97683.16
2022-11-22T09:27:04.694Z,97683.94
2022-11-22T09:29:33.502Z,97695.78
2022-11-22T09:32:03.483Z,97693.09
2022-11-22T09:34:32.177Z,97692.28
2022-11-22T09:37:01.803Z,97688.81
2022-11-22T09:39:30.669Z,97700.75
2022-11-22T09:42:31.455Z,97688.81
2022-11-22T09:45:56.539Z,97691.50
2022-11-22T09:48:42.688Z,97686.41
2022-11-22T09:51:15.138Z,97670.25
2022-11-22T09:53:49.319Z,97676.97
2022-11-22T09:56:19.579Z,97670.13
2022-11-22T09:58:57.011Z,97674.28
2022-11-22T10:01:30.179Z,97681.00
2022-11-22T10:04:06.251Z,97668.25
2022-11-22T10:06:39.575Z,97674.97
2022-11-22T10:09:29.490Z,97679.09
2022-11-22T10:12:03.659Z,97676.56
2022-11-22T10:14:46.206Z,97668.91
2022-11-22T10:17:29.948Z,97673.06
2022-11-22T10:20:07.932Z,97680.72
2022-11-22T10:22:36.862Z,97673.06
2022-11-22T10:25:17.503Z,97682.34
2022-11-22T10:27:50.186Z,97688.25
2022-11-22T10:30:22.403Z,97678.84
2022-11-22T10:33:01.786Z,97694.97
2022-11-22T10:36:08.340Z,97695.91
2022-11-22T10:39:22.564Z,97691.75
2022-11-22T10:42:20.141Z,97680.72
2022-11-22T10:44:56.050Z,97691.75
2022-11-22T10:47:44.483Z,97693.34
2022-11-22T10:50:21.299Z,97704.38
2022-11-22T10:53:01.667Z,97697.50
2022-11-22T10:55:51.674Z,97683.97
2022-11-22T10:58:33.944Z,97686.38
2022-11-22T11:01:16.312Z,97685.44
2022-11-22T11:03:49.345Z,97697.38
2022-11-22T11:06:37.971Z,97689.56
2022-11-22T11:10:08.965Z,97679.34
2022-11-22T11:12:17.407Z,97676.81
2022-11-22T11:14:50.051Z,97680.97
2022-11-22T11:17:29.314Z,97683.38
2022-11-22T11:20:04.683Z,97680.84
2022-11-22T11:23:12.571Z,97661.09
2022-11-22T11:25:33.627Z,97671.31
2022-11-22T11:28:07.730Z,97665.25
2022-11-22T11:30:42.397Z,97657.59
2022-11-22T11:33:30.212Z,97664.28
2022-11-22T11:36:06.907Z,97663.34
2022-11-22T11:38:38.858Z,97657.31
2022-11-22T11:41:27.263Z,97652.22
2022-11-22T11:43:58.168Z,97653.81
2022-11-22T11:46:28.559Z,97655.41
2022-11-22T11:49:10.306Z,97652.84
2022-11-22T11:51:44.357Z,97654.34
2022-11-22T11:54:17.348Z,97649.22
2022-11-22T11:56:50.410Z,97644.81
2022-11-22T11:59:21.105Z,97657.56
2022-11-22T12:01:55.651Z,97645.59
2022-11-22T12:04:28.648Z,97649.75
2022-11-22T12:07:05.826Z,97647.22
2022-11-22T12:09:44.739Z,97639.56
2022-11-22T12:12:37.304Z,97640.38
2022-11-22T12:15:17.192Z,97641.19
2022-11-22T12:17:55.708Z,97649.66
2022-11-22T12:20:31.636Z,97644.53
2022-11-22T12:23:15.703Z,97641.06
2022-11-22T12:25:46.483Z,97631.63
2022-11-22T12:28:20.434Z,97629.09
2022-11-22T12:30:54.782Z,97624.78
2022-11-22T12:33:30.870Z,97615.38
2022-11-22T12:35:59.749Z,97619.66
2022-11-22T12:38:35.944Z,97605.16
2022-11-22T12:41:09.256Z,97606.78
2022-11-22T12:43:43.012Z,97601.69
2022-11-22T12:46:18.442Z,97597.50
2022-11-22T12:48:51.747Z,97604.22
2022-11-22T12:51:27.356Z,97605.03
2022-11-22T12:54:02.638Z,97604.09
2022-11-22T12:56:40.576Z,97601.69
2022-11-22T12:59:21.906Z,97609.34
2022-11-22T13:02:00.695Z,97606.78
2022-11-22T13:04:40.516Z,97603.25
2022-11-22T13:07:17.730Z,97607.56
2022-11-22T13:09:57.103Z,97603.25
2022-11-22T13:12:31.910Z,97601.69
2022-11-22T13:15:01.821Z,97602.47
2022-11-22T13:17:35.912Z,97605.81
2022-11-22T13:20:09.780Z,97607.56
2022-11-22T13:22:57.344Z,97610.91
2022-11-22T13:25:52.577Z,97596.56
2022-11-22T13:28:25.932Z,97601.69
2022-11-22T13:31:17.339Z,97601.69
2022-11-22T13:33:56.980Z,97603.41
2022-11-22T13:36:41.965Z,97600.84
2022-11-22T13:39:20.759Z,97594.81
2022-11-22T13:42:02.396Z,97605.81
2022-11-22T13:44:51.082Z,97600.06
2022-11-22T13:47:44.106Z,97605.97
2022-11-22T13:51:03.234Z,97608.66
2022-11-22T13:53:34.732Z,97611.22
2022-11-22T13:56:49.491Z,97607.88
2022-11-22T13:59:20.058Z,97607.03
2022-11-22T14:02:01.886Z,97610.28
2022-11-22T14:04:41.872Z,97598.44
2022-11-22T14:07:39.789Z,97613.75
2022-11-22T14:10:33.054Z,97607.88
2022-11-22T14:13:32.843Z,97607.88
2022-11-22T14:16:32.475Z,97611.22
2022-11-22T14:19:12.860Z,97601.00
2022-11-22T14:22:01.140Z,97608.66
2022-11-22T14:24:52.104Z,97603.56
2022-11-22T14:27:36.160Z,97608.66
2022-11-22T14:30:15.278Z,97610.28
2022-11-22T14:32:58.067Z,97613.75
2022-11-22T14:35:36.796Z,97614.56
2022-11-22T14:38:31.807Z,97612.97
2022-11-22T14:41:44.146Z,97623.97
2022-11-22T14:44:18.648Z,97623.97
2022-11-22T14:46:54.831Z,97625.75
2022-11-22T14:49:37.278Z,97630.69
2022-11-22T14:52:16.458Z,97634.19
2022-11-22T14:54:49.996Z,97634.97
2022-11-22T14:57:23.204Z,97630.69
2022-11-22T15:00:08.999Z,97637.41
2022-11-22T15:03:19.862Z,97640.09
2022-11-22T15:09:15.566Z,97642.63
2022-11-22T15:09:56.154Z,97634.34
2022-11-22T15:13:19.702Z,97649.75
2022-11-22T15:59:25.091Z,97701.09
2022-11-22T16:01:57.366Z,97701.09
2022-11-22T16:04:31.192Z,97711.97
2022-11-22T16:07:02.641Z,97712.91
2022-11-22T16:09:35.579Z,97716.28
2022-11-22T16:12:28.342Z,97716.28
2022-11-22T16:14:57.307Z,97728.22
2022-11-22T16:17:31.487Z,97723.13
2022-11-22T16:20:30.736Z,97730.91
2022-11-22T16:23:27.371Z,97731.06
2022-11-22T16:26:01.022Z,97725.81
2022-11-22T16:28:36.228Z,97731.06
2022-11-22T16:31:16.750Z,97730.13
2022-11-22T16:33:46.186Z,97728.50
2022-11-22T16:36:17.307Z,97730.91
2022-11-22T16:38:46.435Z,97720.06
2022-11-22T16:41:20.287Z,97728.50
2022-11-22T16:43:53.622Z,97726.09
2022-11-22T16:46:22.658Z,97726.09
2022-11-22T16:48:51.481Z,97725.31
2022-11-22T16:51:24.950Z,97737.09
2022-11-22T16:53:54.351Z,97735.53
2022-11-22T16:56:25.183Z,97746.66
2022-11-22T16:58:58.039Z,97745.03
2022-11-22T17:01:28.477Z,97743.28
2022-11-22T17:03:58.450Z,97757.00
2022-11-22T17:06:29.284Z,97757.00
2022-11-22T17:09:00.286Z,97754.59
2022-11-22T17:11:31.773Z,97764.81
2022-11-22T17:14:02.256Z,97765.75
2022-11-22T17:16:31.011Z,97769.91
2022-11-22T17:18:59.811Z,97770.84
2022-11-22T17:21:36.096Z,97770.84
2022-11-22T17:24:11.000Z,97773.41
2022-11-22T17:26:39.634Z,97774.34
2022-11-22T17:29:18.373Z,97762.38
2022-11-22T17:31:58.314Z,97762.50
2022-11-22T17:34:27.006Z,97769.38
2022-11-22T17:36:55.583Z,97780.38
2022-11-22T17:39:24.151Z,97784.69
2022-11-22T17:41:52.763Z,97789.78
2022-11-22T17:44:22.821Z,97780.38
2022-11-22T17:46:51.656Z,97782.13
2022-11-22T17:49:20.258Z,97782.13
2022-11-22T17:51:48.847Z,97784.69
2022-11-22T17:54:17.619Z,97783.06
2022-11-22T17:56:46.253Z,97775.41
2022-11-22T17:59:15.163Z,97784.84
2022-11-22T18:01:45.212Z,97782.28
2022-11-22T18:04:14.748Z,97781.47
2022-11-22T18:06:43.512Z,97786.56
2022-11-22T18:09:12.162Z,97781.47
2022-11-22T18:11:40.883Z,97783.22
2022-11-22T18:14:11.100Z,97780.66
2022-11-22T18:16:39.942Z,97785.75
2022-11-22T18:19:10.196Z,97776.50
2022-11-22T18:21:39.114Z,97783.22
2022-11-22T18:24:08.582Z,97789.25
2022-11-22T18:26:40.010Z,97794.34
2022-11-22T18:31:59.055Z,97807.25
2022-11-22T18:34:29.887Z,97809.00
2022-11-22T18:37:02.407Z,97814.13
2022-11-22T18:39:34.257Z,97813.28
2022-11-22T18:42:03.786Z,97810.75
2022-11-22T18:44:32.472Z,97807.41
2022-11-22T18:47:01.183Z,97810.75
2022-11-22T18:49:31.466Z,97814.25
2022-11-22T18:52:00.559Z,97815.84
2022-11-22T18:54:29.527Z,97809.94
2022-11-22T18:56:58.298Z,97817.59
2022-11-22T18:59:26.944Z,97815.06
2022-11-22T19:01:55.542Z,97825.25
2022-11-22T19:04:24.225Z,97814.25
2022-11-22T19:06:55.491Z,97818.53
2022-11-22T19:09:24.190Z,97816.91
2022-11-22T19:11:58.250Z,97821.09
2022-11-22T19:14:29.006Z,97817.75
2022-11-22T19:16:57.785Z,97817.75
2022-11-22T19:19:26.443Z,97830.50
2022-11-22T19:21:56.408Z,97825.41
2022-11-22T19:24:25.159Z,97817.75
2022-11-22T19:26:53.792Z,97817.75
2022-11-22T19:29:22.686Z,97823.78
2022-11-22T19:31:51.387Z,97827.94
2022-11-22T19:34:19.990Z,97830.50
2022-11-22T19:36:48.626Z,97827.13
2022-11-22T19:39:20.110Z,97833.19
2022-11-22T19:41:48.702Z,97834.13
2022-11-22T19:44:17.362Z,97835.75
2022-11-22T19:46:46.396Z,97834.94
2022-11-22T19:49:14.943Z,97836.53
2022-11-22T19:51:43.591Z,97834.94
2022-11-22T19:54:12.382Z,97836.53
2022-11-22T19:56:42.396Z,97845.13
2022-11-22T19:59:15.790Z,97840.84
2022-11-22T20:01:44.696Z,97848.50
2022-11-22T20:04:15.379Z,97852.00
2022-11-22T20:06:49.760Z,97849.44
2022-11-22T20:09:19.063Z,97859.66
2022-11-22T20:11:49.112Z,97856.31
2022-11-22T20:14:17.812Z,97856.31
2022-11-22T20:16:46.408Z,97861.50
2022-11-22T20:19:15.685Z,97858.03
2022-11-22T20:21:44.837Z,97852.13
2022-11-22T20:24:14.276Z,97869.16
2022-11-22T20:26:43.834Z,97866.63
2022-11-22T20:29:15.259Z,97867.59
2022-11-22T20:31:43.860Z,97869.31
2022-11-22T20:34:13.865Z,97870.13
2022-11-22T20:36:42.910Z,97866.75
2022-11-22T20:39:11.697Z,97862.59
2022-11-22T20:41:41.133Z,97873.63
2022-11-22T20:44:15.271Z,97868.50
2022-11-22T20:46:45.012Z,97872.00
2022-11-22T20:49:13.820Z,97872.00
2022-11-22T20:51:43.128Z,97884.75
2022-11-22T20:54:12.306Z,97885.69
2022-11-22T20:56:40.959Z,97888.25
2022-11-22T20:59:09.631Z,97897.50
2022-11-22T21:01:39.729Z,97889.19
2022-11-22T21:04:26.875Z,97894.31
2022-11-22T21:07:14.147Z,97896.97
2022-11-22T21:10:01.031Z,97896.97
2022-11-22T21:12:48.143Z,97904.75
2022-11-22T21:15:35.671Z,97904.75
2022-11-22T21:18:25.780Z,97905.72
2022-11-22T21:21:14.508Z,97908.28
2022-11-22T21:24:03.810Z,97901.53
2022-11-22T21:26:51.639Z,97907.56
2022-11-22T21:29:38.819Z,97920.34
2022-11-22T21:32:25.933Z,97916.16
2022-11-22T21:35:14.931Z,97917.00
2022-11-22T21:38:02.668Z,97915.38
2022-11-22T21:41:05.609Z,97915.38
2022-11-22T21:44:01.980Z,97917.13
2022-11-22T21:46:49.411Z,97919.69
2022-11-22T21:49:36.447Z,97920.59
2022-11-22T21:52:24.940Z,97925.72
2022-11-22T21:55:13.087Z,97920.59
2022-11-22T21:58:00.234Z,97920.59
2022-11-22T22:00:47.970Z,97924.88
2022-11-22T22:03:35.715Z,97930.81
2022-11-22T22:06:23.594Z,97927.34
2022-11-22T22:09:12.148Z,97923.16
2022-11-22T22:11:59.440Z,97934.16
2022-11-22T22:14:46.519Z,97941.03
2022-11-22T22:17:33.684Z,97938.47
2022-11-22T22:20:21.332Z,97933.38
2022-11-22T22:23:08.492Z,97934.16
2022-11-22T22:26:01.332Z,97936.72
2022-11-22T22:28:48.454Z,97930.81
2022-11-22T22:31:35.696Z,97935.91
2022-11-22T22:34:22.668Z,97943.56
2022-11-22T22:37:10.027Z,97929.06
2022-11-22T22:39:57.298Z,97930.81
2022-11-22T22:42:46.040Z,97935.00
2022-11-22T22:45:36.003Z,97941.81
2022-11-22T22:48:23.500Z,97946.78
2022-11-22T22:51:14.534Z,97947.75
2022-11-22T22:54:01.685Z,97952.84
2022-11-22T22:56:49.407Z,97948.53
2022-11-22T22:59:37.935Z,97947.75
2022-11-22T23:02:25.276Z,97946.00
2022-11-22T23:05:12.799Z,97961.16
2022-11-22T23:07:59.861Z,97951.88
2022-11-22T23:10:46.899Z,97953.50
2022-11-22T23:13:35.715Z,97950.97
2022-11-22T23:16:24.511Z,97950.97
2022-11-22T23:19:12.143Z,97952.59
2022-11-22T23:21:59.336Z,97954.19
2022-11-22T23:24:46.561Z,97958.47
2022-11-22T23:27:33.614Z,97955.94
2022-11-22T23:30:20.855Z,97953.38
2022-11-22T23:33:09.447Z,97957.56
2022-11-22T23:35:56.846Z,97955.78
2022-11-22T23:38:45.004Z,97958.34
2022-11-22T23:41:32.383Z,97953.25
2022-11-22T23:44:19.382Z,97956.63
2022-11-22T23:47:06.663Z,97956.63
2022-11-22T23:49:55.279Z,97963.31
2022-11-22T23:52:42.611Z,97964.28
2022-11-22T23:55:29.776Z,97956.47
2022-11-22T23:58:17.003Z,97952.31
